Hlavní strana
METAR-TAF:

METAR-TAF

Letiště :

Dušanbe, Tádžikistán

zeměpisná šířka: 38-33N, zeměpisná délka: 068-47E, výška: 803 m

Aktuální stav počasí

Zpráva byla vytvořena před 18 minutami, v 07:00 UTC
Východní vítr 6 kt, proměnlivý mezi severoseverovýchodním a východojihovýchodním
Teplota 16°C
Vlhkost vzduchu 17%
Tlak 1020 hPa
Viditelnost 10 km a více

METAR: UTDD 200700Z 08003MPS 030V110 9999 NSC 16/M09 Q1020 R09/D NOSIG RMK QFE697/0929

Čas: 12:18 (07:18 UTC)

Předpověď počasí

Zpráva byla vytvořena před 1 hodinou a 18 minutami, v 06:00 UTC
Předpověď platná od 20 v 07 UTC do 20 v 19 UTC
Východní vítr 10 kt
Viditelnost: 6000 m
Skoro jasno ve výšce 6600 ft
Polojasno ve výšce 15000 ft
Dočasný
od 20 v 13 UTC do 20 v 19 UTC
Viditelnost: 1500 m
kouřmo, kouř

TAF: UTDD 200600Z 2007/2019 09005MPS 6000 FEW066 SCT150 TEMPO 2013/2019 1500 BR FU

Stav a předpovědi počasí z více než 4 000 letišť (zprávy METAR a TAF).

Červené a žluté tečky na mapě představují dostupné meteorologické stanice.

Když kurzor umístíte na tečku, zobrazí se název stanice.

Pak kliknutím zobrazíte stav a předpověď počasí.

Chcete-li změnit mapu, kliknutím na zelené tlačítko se znaménkem +mapu přiblížíte, kliknutím na zelené tlačítko se znaménkem – mapu oddálíte a kliknutím na zelené šipky přejdete na sousední mapy.


METAR-TAF: